»·PEaware :: N45XS KEGE-KAPA

N45XS :: KEGE-KAPA

FLIGHT INFORMATION

Flight Status: Arrived
Operator: Privately registered:
United States
More flights under this callsign
Pilot: Maurice C. (12314)
Aircraft: BEECH AIRCRAFT BARON
(BE58)
More flights by this aircraft type
Origin: KEGE Eagle Co Regl
United States
Destination: KAPA Centennial
United States
More flights between these airports :: More routes between these airports
Route: +
File this flight plan on PilotEdge
Remarks:
Altitude:
(Current/Filed)
15,500ft
Speed:
(Current/Filed)
0kts
Departed: 18-Nov-18 12:24 PM
Arrived: 18-Nov-18 01:13 PM
Distance/Time
Traveled:
96nm/0:48
Distance/Time
To Go:
Arrived

Flight Plot

Page will automatically refresh every two minutes.


Map Options




Map Legend


Flown Route
Filed Route
Departure Airport
Arrival Airport
Navaid (VOR, NDB)
Fix

Horizontal Profiles

Position Reports

Time Latitude Longitude Heading Altitude Ground
Speed
18-Nov-18 12:18 39.641153 -106.906794 82 6546ft 0kts
18-Nov-18 12:19 39.641153 -106.906794 82 6546ft 0kts
18-Nov-18 12:20 39.641153 -106.906794 82 6546ft 0kts
18-Nov-18 12:21 39.641153 -106.906794 82 6546ft 0kts
18-Nov-18 12:22 39.641153 -106.906794 82 6546ft 0kts
18-Nov-18 12:23 39.641400 -106.906621 357 6546ft 11kts
18-Nov-18 12:24 39.642942 -106.904971 70 6546ft 14kts
18-Nov-18 12:25 39.643383 -106.901882 24 6546ft 0kts
18-Nov-18 12:26 39.643383 -106.901882 24 6546ft 0kts
18-Nov-18 12:27 39.644078 -106.905542 261 6546ft 54kts
18-Nov-18 12:28 39.640178 -106.940388 283 7098ft 107kts
18-Nov-18 12:29 39.664697 -106.942715 72 8011ft 114kts
18-Nov-18 12:30 39.673042 -106.903867 75 8768ft 118kts
18-Nov-18 12:31 39.682711 -106.856487 85 9273ft 131kts
18-Nov-18 12:32 39.684291 -106.807780 88 9749ft 144kts
18-Nov-18 12:33 39.688623 -106.758469 77 10433ft 133kts
18-Nov-18 12:34 39.689336 -106.710237 91 11014ft 134kts
18-Nov-18 12:35 39.689554 -106.662311 88 11598ft 133kts
18-Nov-18 12:36 39.686353 -106.617628 91 12340ft 115kts
18-Nov-18 12:37 39.683121 -106.576133 91 12790ft 115kts
18-Nov-18 12:38 39.680934 -106.535480 88 13191ft 115kts
18-Nov-18 12:39 39.680073 -106.498373 84 13399ft 126kts
18-Nov-18 12:40 39.678002 -106.449988 83 13613ft 131kts
18-Nov-18 12:41 39.674653 -106.405082 90 13814ft 104kts
18-Nov-18 12:42 39.673561 -106.366143 87 13569ft 114kts
18-Nov-18 12:43 39.673554 -106.324778 87 13770ft 123kts
18-Nov-18 12:44 39.670812 -106.277850 88 14050ft 128kts
18-Nov-18 12:45 39.667716 -106.229632 91 14265ft 137kts
18-Nov-18 12:46 39.662069 -106.181159 87 14668ft 130kts
18-Nov-18 12:47 39.658655 -106.131482 92 14835ft 141kts
18-Nov-18 12:48 39.652879 -106.081427 88 15052ft 142kts
18-Nov-18 12:49 39.648727 -106.032732 90 15406ft 134kts
18-Nov-18 12:50 39.643082 -105.986063 88 15567ft 140kts
18-Nov-18 12:51 39.638872 -105.932615 88 15467ft 145kts
18-Nov-18 12:52 39.635889 -105.880485 82 15493ft 146kts
18-Nov-18 12:53 39.637488 -105.826308 80 15319ft 152kts
18-Nov-18 12:54 39.639302 -105.771532 80 15257ft 150kts
18-Nov-18 12:55 39.641280 -105.718485 80 15300ft 144kts
18-Nov-18 12:56 39.643304 -105.675376 80 15330ft 143kts
18-Nov-18 12:57 39.646168 -105.614829 80 15334ft 145kts
18-Nov-18 12:58 39.648251 -105.571438 80 15339ft 144kts
18-Nov-18 12:59 39.651190 -105.510553 79 15344ft 145kts
18-Nov-18 13:00 39.653349 -105.466825 80 14993ft 148kts
18-Nov-18 13:01 39.646554 -105.401591 95 14125ft 164kts
18-Nov-18 13:02 39.639766 -105.351642 94 13370ft 175kts
18-Nov-18 13:03 39.631540 -105.290891 98 12612ft 165kts
18-Nov-18 13:04 39.623610 -105.232469 100 12026ft 162kts
18-Nov-18 13:05 39.616047 -105.176937 100 11431ft 145kts
18-Nov-18 13:06 39.609164 -105.126521 100 10635ft 139kts
18-Nov-18 13:07 39.602592 -105.081275 100 9598ft 120kts
18-Nov-18 13:08 39.597212 -105.041311 98 8730ft 122kts
18-Nov-18 13:09 39.593076 -104.992990 96 8077ft 139kts
18-Nov-18 13:10 39.586804 -104.943626 100 7370ft 135kts
18-Nov-18 13:11 39.581942 -104.900326 94 6675ft 111kts
18-Nov-18 13:12 39.593210 -104.875103 357 6686ft 113kts
18-Nov-18 13:13 39.619895 -104.868755 88 6452ft 106kts
18-Nov-18 13:14 39.602462 -104.852058 178 6163ft 106kts
18-Nov-18 13:15 39.576757 -104.851813 184 5823ft 47kts
18-Nov-18 13:16 39.573859 -104.848569 86 5823ft 17kts
18-Nov-18 13:17 39.574048 -104.841632 91 5823ft 24kts
18-Nov-18 13:18 39.573662 -104.837647 317 5823ft 6kts
18-Nov-18 13:19 39.573685 -104.837660 192 5823ft 0kts

Navigation Log

Ident Type
Flight plan parsing failed, navigation log unavailable